createdAt,value
2022-09-28T00:02:03.980Z,98917.94
2022-09-28T00:04:30.576Z,98909.06
2022-09-28T00:06:56.907Z,98904.72
2022-09-28T00:09:23.251Z,98905.88
2022-09-28T00:11:50.861Z,98902.91
2022-09-28T00:14:17.205Z,98897.38
2022-09-28T00:16:44.165Z,98906.59
2022-09-28T00:19:11.305Z,98911.59
2022-09-28T00:21:38.752Z,98903.22
2022-09-28T00:24:06.326Z,98901.53
2022-09-28T00:26:33.500Z,98898.84
2022-09-28T00:29:02.022Z,98891.47
2022-09-28T00:31:29.524Z,98889.94
2022-09-28T00:33:56.302Z,98896.00
2022-09-28T00:36:23.113Z,98890.63
2022-09-28T00:38:49.795Z,98888.81
2022-09-28T00:41:17.376Z,98896.34
2022-09-28T00:43:43.729Z,98887.13
2022-09-28T00:46:14.547Z,98889.47
2022-09-28T00:48:44.233Z,98889.13
2022-09-28T00:51:11.892Z,98893.16
2022-09-28T00:53:40.112Z,98888.44
2022-09-28T00:56:08.446Z,98883.25
2022-09-28T00:58:36.248Z,98883.91
2022-09-28T01:01:03.531Z,98886.59
2022-09-28T01:03:32.499Z,98880.94
2022-09-28T01:05:59.910Z,98885.47
2022-09-28T01:08:27.121Z,98884.94
2022-09-28T01:10:53.545Z,98883.63
2022-09-28T01:13:20.665Z,98886.44
2022-09-28T01:15:52.955Z,98878.03
2022-09-28T01:18:22.712Z,98884.78
2022-09-28T01:20:54.384Z,98872.69
2022-09-28T01:23:31.910Z,98880.72
2022-09-28T01:26:03.383Z,98879.88
2022-09-28T01:28:31.455Z,98877.56
2022-09-28T01:31:01.615Z,98862.00
2022-09-28T01:33:31.265Z,98859.81
2022-09-28T01:35:59.989Z,98858.97
2022-09-28T01:38:28.441Z,98864.66
2022-09-28T01:40:55.962Z,98860.28
2022-09-28T01:43:24.293Z,98858.63
2022-09-28T01:45:54.230Z,98865.31
2022-09-28T01:48:24.480Z,98866.47
2022-09-28T01:50:53.466Z,98878.88
2022-09-28T01:53:22.088Z,98866.31
2022-09-28T01:55:50.670Z,98867.16
2022-09-28T01:58:18.903Z,98863.97
2022-09-28T02:00:48.276Z,98863.66
2022-09-28T02:03:19.283Z,98867.84
2022-09-28T02:05:48.667Z,98863.47
2022-09-28T02:08:17.958Z,98861.63
2022-09-28T02:10:48.758Z,98861.97
2022-09-28T02:13:16.730Z,98858.28
2022-09-28T02:15:46.041Z,98857.94
2022-09-28T02:18:12.932Z,98857.94
2022-09-28T02:20:42.425Z,98855.75
2022-09-28T02:23:09.496Z,98861.94
2022-09-28T02:25:39.562Z,98857.94
2022-09-28T02:28:07.550Z,98860.00
2022-09-28T02:30:35.890Z,98860.31
2022-09-28T02:33:05.895Z,98864.34
2022-09-28T02:35:32.233Z,98860.31
2022-09-28T02:37:59.963Z,98859.78
2022-09-28T02:40:31.056Z,98859.59
2022-09-28T02:43:01.932Z,98861.59
2022-09-28T02:45:36.280Z,98865.97
2022-09-28T02:48:08.360Z,98860.28
2022-09-28T02:50:39.061Z,98862.97
2022-09-28T02:53:18.431Z,98862.97
2022-09-28T02:55:55.419Z,98861.31
2022-09-28T02:58:30.463Z,98867.00
2022-09-28T03:01:01.730Z,98866.00
2022-09-28T03:03:31.269Z,98862.66
2022-09-28T03:06:00.004Z,98874.38
2022-09-28T03:08:29.962Z,98876.38
2022-09-28T03:10:59.073Z,98875.53
2022-09-28T03:13:25.902Z,98872.84
2022-09-28T03:15:52.216Z,98880.06
2022-09-28T03:18:18.667Z,98871.19
2022-09-28T03:20:45.007Z,98881.94
2022-09-28T03:23:26.917Z,98870.06
2022-09-28T03:25:54.655Z,98871.41
2022-09-28T03:28:21.098Z,98877.22
2022-09-28T03:30:47.676Z,98869.34
2022-09-28T03:33:14.154Z,98869.34
2022-09-28T03:35:40.615Z,98870.31
2022-09-28T03:38:06.978Z,98875.88
2022-09-28T03:40:33.435Z,98869.50
2022-09-28T03:43:01.218Z,98877.06
2022-09-28T03:45:27.593Z,98874.56
2022-09-28T03:47:54.094Z,98884.47
2022-09-28T03:50:20.444Z,98881.78
2022-09-28T03:52:46.803Z,98892.16
2022-09-28T03:55:13.128Z,98888.97
2022-09-28T03:57:39.467Z,98892.16
2022-09-28T04:00:07.659Z,98891.78
2022-09-28T04:02:34.187Z,98894.13
2022-09-28T04:05:00.582Z,98897.66
2022-09-28T04:07:30.793Z,98896.19
2022-09-28T04:09:57.527Z,98893.00
2022-09-28T04:12:23.919Z,98884.66
2022-09-28T04:14:50.259Z,98890.34
2022-09-28T04:17:17.948Z,98895.16
2022-09-28T04:19:44.262Z,98888.13
2022-09-28T04:22:10.595Z,98904.06
2022-09-28T04:24:36.933Z,98897.34
2022-09-28T04:27:03.422Z,98913.25
2022-09-28T04:29:29.785Z,98911.59
2022-09-28T04:31:56.250Z,98896.84
2022-09-28T04:34:24.042Z,98897.53
2022-09-28T04:36:50.391Z,98905.06
2022-09-28T04:39:17.512Z,98912.28
2022-09-28T04:41:44.075Z,98909.44
2022-09-28T04:44:10.488Z,98914.63
2022-09-28T04:46:36.865Z,98916.31
2022-09-28T04:49:03.356Z,98918.97
2022-09-28T04:51:31.755Z,98910.44
2022-09-28T04:53:58.081Z,98911.78
2022-09-28T04:56:24.443Z,98915.44
2022-09-28T04:58:52.855Z,98914.28
2022-09-28T05:01:19.821Z,98907.75
2022-09-28T05:03:46.440Z,98912.44
2022-09-28T05:06:13.658Z,98908.25
2022-09-28T05:08:41.518Z,98916.47
2022-09-28T05:11:10.055Z,98913.97
2022-09-28T05:13:39.780Z,98916.66
2022-09-28T05:16:06.490Z,98904.09
2022-09-28T05:18:32.843Z,98909.25
2022-09-28T05:20:59.174Z,98909.75
2022-09-28T05:23:25.510Z,98908.41
2022-09-28T05:25:53.155Z,98914.47
2022-09-28T05:28:22.532Z,98913.41
2022-09-28T05:30:48.934Z,98910.13
2022-09-28T05:33:15.262Z,98905.94
2022-09-28T05:35:41.563Z,98908.09
2022-09-28T05:38:08.034Z,98903.97
2022-09-28T05:40:34.451Z,98906.91
2022-09-28T05:43:02.223Z,98902.22
2022-09-28T05:45:28.869Z,98904.09
2022-09-28T05:47:55.360Z,98900.72
2022-09-28T05:50:21.794Z,98903.22
2022-09-28T05:52:56.676Z,98902.56
2022-09-28T05:55:23.019Z,98910.97
2022-09-28T05:57:49.357Z,98917.84
2022-09-28T06:00:17.046Z,98914.63
2022-09-28T06:02:43.477Z,98914.47
2022-09-28T06:05:09.970Z,98922.00
2022-09-28T06:07:36.284Z,98929.38
2022-09-28T06:10:02.814Z,98927.53
2022-09-28T06:12:29.124Z,98926.84
2022-09-28T06:14:55.448Z,98925.53
2022-09-28T06:17:23.108Z,98930.03
2022-09-28T06:19:49.538Z,98934.41
2022-09-28T06:22:15.889Z,98932.41
2022-09-28T06:24:42.202Z,98934.41
2022-09-28T06:27:08.532Z,98938.09
2022-09-28T06:29:34.908Z,98938.09
2022-09-28T06:32:01.395Z,98939.09
2022-09-28T06:34:29.080Z,98937.91
2022-09-28T06:36:55.482Z,98956.72
2022-09-28T06:39:21.814Z,98954.19
2022-09-28T06:41:48.265Z,98961.91
2022-09-28T06:44:14.776Z,98960.53
2022-09-28T06:46:41.323Z,98967.47
2022-09-28T06:49:07.768Z,98964.25
2022-09-28T06:51:35.451Z,98961.91
2022-09-28T06:54:01.909Z,98969.97
2022-09-28T06:56:32.565Z,98973.16
2022-09-28T06:58:59.312Z,98972.97
2022-09-28T07:01:25.785Z,98966.44
2022-09-28T07:03:55.498Z,98966.09
2022-09-28T07:06:22.298Z,98973.63
2022-09-28T07:09:01.343Z,98974.47
2022-09-28T07:11:38.002Z,98986.53
2022-09-28T07:14:04.488Z,98985.03
2022-09-28T07:16:49.615Z,98982.72
2022-09-28T07:19:17.203Z,98989.91
2022-09-28T07:21:44.274Z,98987.75
2022-09-28T07:24:12.636Z,98984.41
2022-09-28T07:26:38.981Z,98987.06
2022-09-28T07:29:05.329Z,98984.56
2022-09-28T07:31:31.641Z,98989.09
2022-09-28T07:33:57.950Z,98989.94
2022-09-28T07:36:24.343Z,98985.06
2022-09-28T07:38:50.676Z,98981.00
2022-09-28T07:41:18.496Z,98984.38
2022-09-28T07:43:44.837Z,98978.63
2022-09-28T07:46:11.334Z,98980.69
2022-09-28T07:48:38.983Z,98985.16
2022-09-28T07:51:05.390Z,98983.38
2022-09-28T07:53:32.086Z,98981.84
2022-09-28T07:55:59.342Z,98989.00
2022-09-28T07:58:26.943Z,98987.44
2022-09-28T08:00:53.355Z,98992.56
2022-09-28T08:03:20.506Z,98991.25
2022-09-28T08:05:46.905Z,98992.34
2022-09-28T08:08:13.651Z,98998.03
2022-09-28T08:10:45.801Z,98995.44
2022-09-28T08:13:13.374Z,99004.19
2022-09-28T08:15:41.035Z,99003.47
2022-09-28T08:18:07.536Z,99001.66
2022-09-28T08:20:34.277Z,99007.00
2022-09-28T08:23:02.747Z,99009.78
2022-09-28T08:25:29.202Z,99008.53
2022-09-28T08:27:55.524Z,99013.06
2022-09-28T08:30:21.956Z,99012.47
2022-09-28T08:32:49.657Z,99011.34
2022-09-28T08:35:16.046Z,99015.34
2022-09-28T08:37:45.875Z,99019.97
2022-09-28T08:40:18.608Z,99012.97
2022-09-28T08:42:45.008Z,99017.28
2022-09-28T08:45:12.908Z,99021.16
2022-09-28T08:47:44.005Z,99014.78
2022-09-28T08:50:16.983Z,99010.31
2022-09-28T08:52:44.253Z,99009.84
2022-09-28T08:55:13.610Z,99009.84
2022-09-28T08:57:43.207Z,99012.84
2022-09-28T09:00:14.699Z,99012.84
2022-09-28T09:02:41.291Z,99011.00
2022-09-28T09:05:11.074Z,99009.16
2022-09-28T09:07:48.445Z,99012.84
2022-09-28T09:10:23.184Z,99007.63
2022-09-28T09:12:56.943Z,99005.94
2022-09-28T09:15:30.278Z,99011.31
2022-09-28T09:18:06.183Z,99013.34
2022-09-28T09:20:37.887Z,99020.91
2022-09-28T09:23:10.462Z,99018.19
2022-09-28T09:25:40.540Z,99018.03
2022-09-28T09:28:19.457Z,99014.22
2022-09-28T09:30:51.421Z,99020.19
2022-09-28T09:33:33.091Z,99021.56
2022-09-28T09:36:04.318Z,99018.03
2022-09-28T09:38:40.100Z,99022.53
2022-09-28T09:43:55.373Z,99025.59
2022-09-28T09:46:26.642Z,99022.44
2022-09-28T09:48:55.637Z,99027.63
2022-09-28T09:51:25.679Z,99017.22
2022-09-28T09:53:55.511Z,99020.59
2022-09-28T09:56:26.309Z,99018.75
2022-09-28T09:58:56.014Z,99017.56
2022-09-28T10:01:26.833Z,99015.72
2022-09-28T10:03:54.530Z,99006.84
2022-09-28T10:06:25.077Z,99018.34
2022-09-28T10:08:56.471Z,99011.19
2022-09-28T10:11:27.468Z,99014.69
2022-09-28T10:13:54.058Z,99011.97
2022-09-28T10:16:20.415Z,99007.34
2022-09-28T10:18:47.211Z,99017.25
2022-09-28T10:21:13.839Z,99014.56
2022-09-28T10:23:40.977Z,99020.25
2022-09-28T10:26:09.978Z,99021.28
2022-09-28T10:28:40.648Z,99024.31
2022-09-28T10:31:21.930Z,99024.09
2022-09-28T10:33:48.280Z,99020.28
2022-09-28T10:36:14.631Z,99016.25
2022-09-28T10:38:47.415Z,99015.56
2022-09-28T10:41:13.740Z,99016.75
2022-09-28T10:43:50.711Z,99015.25
2022-09-28T10:46:21.310Z,99015.75
2022-09-28T10:48:49.860Z,99024.50
2022-09-28T10:51:16.900Z,99015.59
2022-09-28T10:53:57.070Z,99012.56
2022-09-28T10:56:26.716Z,99014.59
2022-09-28T10:58:54.376Z,99006.34
2022-09-28T11:01:21.553Z,99010.22
2022-09-28T11:03:49.783Z,99002.66
2022-09-28T11:06:22.630Z,98999.81
2022-09-28T11:08:49.363Z,99005.88
2022-09-28T11:11:16.812Z,98993.94
2022-09-28T11:13:44.674Z,98989.38
2022-09-28T11:16:21.538Z,98993.22
2022-09-28T11:18:48.310Z,98996.72
2022-09-28T11:21:15.975Z,98999.31
2022-09-28T11:23:54.700Z,98990.72
2022-09-28T11:26:21.662Z,98989.06
2022-09-28T11:28:50.691Z,98988.38
2022-09-28T11:31:23.744Z,98984.56
2022-09-28T11:33:51.733Z,98983.03
2022-09-28T11:36:28.326Z,98987.91
2022-09-28T11:39:00.130Z,98982.03
2022-09-28T11:41:38.636Z,98974.44
2022-09-28T11:44:13.111Z,98974.44
2022-09-28T11:46:44.203Z,98985.69
2022-09-28T11:49:19.523Z,98982.50
2022-09-28T11:51:47.358Z,98969.25
2022-09-28T11:54:19.330Z,98975.44
2022-09-28T11:56:47.727Z,98966.25
2022-09-28T11:59:15.759Z,98961.88
2022-09-28T12:01:43.851Z,98963.38
2022-09-28T12:04:14.173Z,98961.22
2022-09-28T12:06:45.758Z,98962.88
2022-09-28T12:09:16.986Z,98965.25
2022-09-28T12:11:45.338Z,98960.56
2022-09-28T12:14:16.063Z,98964.91
2022-09-28T12:17:04.945Z,98953.66
2022-09-28T12:19:34.758Z,98961.72
2022-09-28T12:22:04.103Z,98947.28
2022-09-28T12:24:32.107Z,98951.13
2022-09-28T12:27:02.987Z,98940.22
2022-09-28T12:29:32.085Z,98951.47
2022-09-28T12:32:02.498Z,98946.47
2022-09-28T12:34:28.970Z,98939.56
2022-09-28T12:37:02.249Z,98936.34
2022-09-28T12:39:56.327Z,98941.34
2022-09-28T12:42:28.969Z,98938.41
2022-09-28T12:45:03.089Z,98932.66
2022-09-28T12:47:38.941Z,98926.97
2022-09-28T12:50:38.134Z,98933.06
2022-09-28T12:53:07.476Z,98928.22
2022-09-28T12:55:41.383Z,98926.34
2022-09-28T12:58:17.493Z,98927.72
2022-09-28T13:00:51.133Z,98933.06
2022-09-28T13:03:27.980Z,98939.09
2022-09-28T13:06:05.112Z,98957.56
2022-09-28T13:08:34.037Z,98961.91
2022-09-28T13:11:08.102Z,98962.72
2022-09-28T13:13:41.070Z,98962.56
2022-09-28T13:16:12.079Z,98953.31
2022-09-28T13:18:41.353Z,98958.50
2022-09-28T13:21:13.316Z,98961.53
2022-09-28T13:23:41.880Z,98968.22
2022-09-28T13:26:13.801Z,98972.78
2022-09-28T13:28:40.999Z,98974.28
2022-09-28T13:31:07.909Z,98982.03
2022-09-28T13:33:35.654Z,98988.72
2022-09-28T13:36:02.611Z,98987.75
2022-09-28T13:38:30.078Z,98989.25
2022-09-28T13:41:11.227Z,98994.78
2022-09-28T13:43:48.592Z,98991.75
2022-09-28T13:46:20.700Z,98984.34
2022-09-28T13:48:53.738Z,98991.75
2022-09-28T13:51:30.974Z,98995.75
2022-09-28T13:54:03.327Z,98985.72
2022-09-28T13:56:34.069Z,98980.69
2022-09-28T13:59:08.215Z,98966.56
2022-09-28T14:01:37.458Z,98969.91
2022-09-28T14:04:12.869Z,98971.03
2022-09-28T14:06:47.477Z,98960.84
2022-09-28T14:09:24.281Z,98957.63
2022-09-28T14:11:54.713Z,98957.59
2022-09-28T14:14:27.737Z,98954.06
2022-09-28T14:17:00.158Z,98959.59
2022-09-28T14:19:29.047Z,98952.50
2022-09-28T14:22:01.232Z,98949.50
2022-09-28T14:24:31.711Z,98950.34
2022-09-28T14:27:11.217Z,98952.00
2022-09-28T14:29:39.446Z,98951.66
2022-09-28T14:32:21.376Z,98951.38
2022-09-28T14:34:54.487Z,98944.81
2022-09-28T14:37:24.968Z,98955.88
2022-09-28T14:39:51.509Z,98953.00
2022-09-28T14:42:19.547Z,98954.88
2022-09-28T14:45:05.228Z,98959.75
2022-09-28T14:47:36.747Z,98961.22
2022-09-28T14:50:17.577Z,98962.72
2022-09-28T14:52:46.409Z,98961.25
2022-09-28T14:55:14.401Z,98960.41
2022-09-28T14:57:41.289Z,98964.09
2022-09-28T15:00:14.742Z,98964.25
2022-09-28T15:02:47.213Z,98954.19
2022-09-28T15:05:15.821Z,98950.50
2022-09-28T15:07:44.054Z,98957.06
2022-09-28T15:10:15.210Z,98955.88
2022-09-28T15:12:43.446Z,98950.16
2022-09-28T15:15:23.148Z,98951.34
2022-09-28T15:17:57.744Z,98952.19
2022-09-28T15:20:26.111Z,98956.56
2022-09-28T15:22:55.437Z,98955.22
2022-09-28T15:25:22.646Z,98958.53
2022-09-28T15:27:51.405Z,98956.03
2022-09-28T15:30:22.138Z,98944.66
2022-09-28T15:32:48.591Z,98954.69
2022-09-28T15:35:19.824Z,98951.16
2022-09-28T15:37:46.810Z,98948.66
2022-09-28T15:40:15.304Z,98954.53
2022-09-28T15:42:42.207Z,98948.13
2022-09-28T15:45:23.378Z,98944.78
2022-09-28T15:47:49.769Z,98943.59
2022-09-28T15:50:22.668Z,98936.56
2022-09-28T15:52:53.799Z,98935.72
2022-09-28T15:55:24.102Z,98940.09
2022-09-28T15:57:50.889Z,98937.91
2022-09-28T16:00:26.951Z,98939.78
2022-09-28T16:02:57.714Z,98933.03
2022-09-28T16:05:34.877Z,98930.56
2022-09-28T16:08:02.164Z,98932.72
2022-09-28T16:10:30.440Z,98934.38
2022-09-28T16:12:59.494Z,98940.75
2022-09-28T16:15:27.940Z,98934.53
2022-09-28T16:17:55.806Z,98936.38
2022-09-28T16:20:24.886Z,98940.25
2022-09-28T16:22:52.565Z,98935.22
2022-09-28T16:25:20.465Z,98929.03
2022-09-28T16:27:46.813Z,98932.75
2022-09-28T16:30:15.782Z,98932.72
2022-09-28T16:32:49.134Z,98934.06
2022-09-28T16:35:17.197Z,98939.09
2022-09-28T16:37:43.589Z,98943.44
2022-09-28T16:40:11.706Z,98943.75
2022-09-28T16:42:38.457Z,98944.44
2022-09-28T16:45:05.454Z,98946.44
2022-09-28T16:47:32.202Z,98952.69
2022-09-28T16:49:58.566Z,98951.47
2022-09-28T16:52:24.885Z,98956.03
2022-09-28T16:54:52.126Z,98952.03
2022-09-28T16:57:19.846Z,98953.53
2022-09-28T16:59:46.158Z,98957.88
2022-09-28T17:02:35.434Z,98957.72
2022-09-28T17:05:01.186Z,98949.16
2022-09-28T17:07:27.685Z,98953.16
2022-09-28T17:09:54.002Z,98946.63
2022-09-28T17:12:22.857Z,98949.66
2022-09-28T17:14:49.208Z,98951.31
2022-09-28T17:17:17.211Z,98951.16
2022-09-28T17:19:43.737Z,98950.97
2022-09-28T17:22:10.080Z,98954.34
2022-09-28T17:24:36.403Z,98956.72
2022-09-28T17:27:03.136Z,98954.88
2022-09-28T17:29:30.840Z,98961.53
2022-09-28T17:31:57.327Z,98949.78
2022-09-28T17:34:23.668Z,98952.19
2022-09-28T17:36:50.083Z,98959.88
2022-09-28T17:39:17.467Z,98954.53
2022-09-28T17:41:44.103Z,98958.72
2022-09-28T17:44:10.708Z,98951.16
2022-09-28T17:46:39.917Z,98960.25
2022-09-28T17:49:07.792Z,98955.88
2022-09-28T17:51:35.548Z,98954.53
2022-09-28T17:54:01.979Z,98955.19
2022-09-28T17:56:31.876Z,98943.28
2022-09-28T17:58:59.775Z,98948.13
2022-09-28T18:01:26.157Z,98947.00
2022-09-28T18:03:53.835Z,98957.38
2022-09-28T18:06:20.170Z,98947.50
2022-09-28T18:08:46.549Z,98948.31
2022-09-28T18:11:12.881Z,98957.72
2022-09-28T18:13:39.420Z,98951.31
2022-09-28T18:16:06.262Z,98953.16
2022-09-28T18:18:32.975Z,98952.19
2022-09-28T18:21:01.223Z,98950.50
2022-09-28T18:23:27.587Z,98951.16
2022-09-28T18:25:53.879Z,98947.13
2022-09-28T18:28:20.261Z,98943.28
2022-09-28T18:30:46.731Z,98936.38
2022-09-28T18:33:13.970Z,98931.72
2022-09-28T18:35:40.841Z,98935.72
2022-09-28T18:38:08.468Z,98928.50
2022-09-28T18:40:34.943Z,98933.88
2022-09-28T18:43:01.347Z,98932.22
2022-09-28T18:45:27.706Z,98930.19
2022-09-28T18:47:54.078Z,98940.09
2022-09-28T18:50:20.421Z,98936.09
2022-09-28T18:52:46.821Z,98934.41
2022-09-28T18:55:14.512Z,98938.06
2022-09-28T18:57:40.836Z,98941.44
2022-09-28T19:00:09.225Z,98935.72
2022-09-28T19:02:36.358Z,98940.59
2022-09-28T19:05:03.389Z,98939.25
2022-09-28T19:07:29.709Z,98941.63
2022-09-28T19:09:56.040Z,98937.09
2022-09-28T19:12:23.683Z,98942.75
2022-09-28T19:14:49.997Z,98943.44
2022-09-28T19:17:16.388Z,98941.97
2022-09-28T19:19:42.776Z,98937.94
2022-09-28T19:22:09.240Z,98939.09
2022-09-28T19:24:35.649Z,98942.44
2022-09-28T19:27:01.993Z,98936.59
2022-09-28T19:29:29.632Z,98931.72
2022-09-28T19:31:55.975Z,98937.56
2022-09-28T19:34:22.416Z,98943.94
2022-09-28T19:36:48.767Z,98935.03
2022-09-28T19:39:15.192Z,98934.59
2022-09-28T19:41:44.347Z,98933.38
2022-09-28T19:44:12.251Z,98929.22
2022-09-28T19:46:40.358Z,98938.41
2022-09-28T19:49:07.774Z,98925.34
2022-09-28T19:51:34.197Z,98933.09
2022-09-28T19:54:01.073Z,98930.03
2022-09-28T19:56:27.928Z,98936.75
2022-09-28T19:58:54.240Z,98927.34
2022-09-28T20:01:20.642Z,98933.19
2022-09-28T20:03:48.304Z,98927.69
2022-09-28T20:06:17.306Z,98929.34
2022-09-28T20:08:44.792Z,98939.25
2022-09-28T20:11:11.286Z,98933.03
2022-09-28T20:13:37.704Z,98938.44
2022-09-28T20:16:04.728Z,98942.94
2022-09-28T20:18:32.213Z,98944.97
2022-09-28T20:21:02.094Z,98947.50
2022-09-28T20:23:28.456Z,98943.78
2022-09-28T20:25:54.809Z,98938.25
2022-09-28T20:28:21.247Z,98940.94
2022-09-28T20:30:47.629Z,98941.94
2022-09-28T20:33:19.118Z,98941.94
2022-09-28T20:35:53.879Z,98944.31
2022-09-28T20:38:21.612Z,98948.31
2022-09-28T20:40:48.046Z,98942.75
2022-09-28T20:43:14.465Z,98944.63
2022-09-28T20:45:40.796Z,98943.47
2022-09-28T20:48:07.224Z,98949.31
2022-09-28T20:50:33.708Z,98953.19
2022-09-28T20:53:00.032Z,98945.66
2022-09-28T20:55:27.847Z,98949.16
2022-09-28T20:57:54.222Z,98933.88
2022-09-28T21:00:20.904Z,98936.09
2022-09-28T21:02:50.992Z,98934.72
2022-09-28T21:05:17.406Z,98930.69
2022-09-28T21:07:43.722Z,98934.56
2022-09-28T21:10:10.280Z,98941.09
2022-09-28T21:12:37.931Z,98937.72
2022-09-28T21:15:06.102Z,98933.69
2022-09-28T21:17:32.613Z,98938.94
2022-09-28T21:19:58.965Z,98930.75
2022-09-28T21:22:25.286Z,98929.88
2022-09-28T21:24:51.602Z,98933.22
2022-09-28T21:27:17.936Z,98926.03
2022-09-28T21:29:45.540Z,98924.34
2022-09-28T21:32:11.943Z,98922.47
2022-09-28T21:34:38.262Z,98928.34
2022-09-28T21:37:05.384Z,98923.97
2022-09-28T21:39:31.745Z,98931.00
2022-09-28T21:41:58.166Z,98932.69
2022-09-28T21:44:24.508Z,98929.69
2022-09-28T21:46:52.080Z,98934.38
2022-09-28T21:49:18.470Z,98931.41
2022-09-28T21:51:44.814Z,98923.34
2022-09-28T21:54:11.250Z,98929.03
2022-09-28T21:56:37.617Z,98925.50
2022-09-28T21:59:03.968Z,98925.66
2022-09-28T22:01:30.339Z,98918.28
2022-09-28T22:03:58.081Z,98918.28
2022-09-28T22:06:25.523Z,98918.94
2022-09-28T22:08:51.853Z,98924.31
2022-09-28T22:11:19.727Z,98931.03
2022-09-28T22:13:46.947Z,98936.75
2022-09-28T22:16:14.085Z,98931.91
2022-09-28T22:18:40.819Z,98929.22
2022-09-28T22:21:10.012Z,98925.53
2022-09-28T22:23:37.403Z,98931.88
2022-09-28T22:26:05.014Z,98927.03
2022-09-28T22:28:31.362Z,98923.16
2022-09-28T22:30:57.829Z,98927.69
2022-09-28T22:33:24.577Z,98920.31
2022-09-28T22:35:51.122Z,98924.00
2022-09-28T22:38:18.829Z,98928.00
2022-09-28T22:40:48.248Z,98933.91
2022-09-28T22:43:14.683Z,98930.06
2022-09-28T22:45:41.113Z,98921.84
2022-09-28T22:48:07.515Z,98916.66
2022-09-28T22:50:33.888Z,98925.00
2022-09-28T22:53:00.500Z,98929.69
2022-09-28T22:55:28.188Z,98927.16
2022-09-28T22:57:54.533Z,98928.03
2022-09-28T23:00:20.855Z,98921.47
2022-09-28T23:02:47.384Z,98929.19
2022-09-28T23:05:13.816Z,98924.00
2022-09-28T23:07:40.218Z,98928.84
2022-09-28T23:10:06.819Z,98932.69
2022-09-28T23:12:34.511Z,98936.28
2022-09-28T23:15:00.819Z,98938.44
2022-09-28T23:17:27.272Z,98930.88
2022-09-28T23:19:53.772Z,98930.53
2022-09-28T23:22:20.101Z,98918.66
2022-09-28T23:24:46.426Z,98914.13
2022-09-28T23:27:12.858Z,98908.06
2022-09-28T23:29:40.599Z,98913.09
2022-09-28T23:32:06.928Z,98907.56
2022-09-28T23:34:33.249Z,98901.34
2022-09-28T23:36:59.650Z,98917.94
2022-09-28T23:39:26.107Z,98917.94
2022-09-28T23:41:52.574Z,98914.47
2022-09-28T23:44:19.027Z,98911.13
2022-09-28T23:46:46.826Z,98899.88
2022-09-28T23:49:13.449Z,98897.03
2022-09-28T23:51:39.902Z,98900.53
2022-09-28T23:54:06.444Z,98896.19
2022-09-28T23:56:32.803Z,98889.28
2022-09-28T23:58:59.213Z,98891.63
